Portada
METAR-TAF:

METAR-TAF

Aeroports :

Batam, Indonèsia

latitud: 01-07-15N, longitud: 104-07-07E, altitud: 38 m

Observació

L'informe es va fer fa 5 hores i 19 minuts, a les 14:30 UTC
Vent 4 kt del Est/Sud-Est
Temperatura 25°C
Humitat 94%
Pressió 1011 hPa
Visibilitat 10 km o més
Escasses núvols a una alçada de 1400 ft, Cumulonimbus.
Núvols disperses a una alçada de 1500 ft
tempesta

METAR: WIDD 211430Z 12004KT 9999 TS FEW014CB SCT015 25/24 Q1011 RMK RERA

Hora: 02:49 (19:49 UTC)

Pronòstic

L'informe es va fer fa 2 hores i 49 minuts, a les 17:00 UTC
Pronòstic vàlid del 21 a les 18 UTC al 22 a les 18 UTC
Vent 4 kt del Est
Visibilitat: 6000 m
Cel ennuvolat a una alçada de 1300 ft
pluja
Evolucionant progressivament
l' 21 a les 20 UTC al 21 a les 22 UTC
Escasses núvols a una alçada de 1400 ft

TAF: WIDD 211700Z 2118/2218 08004KT 6000 -RA BKN013 BECMG 2120/2122 NSW FEW014

Observacions i pronòstics meteorològics de més de 4000 aeroports (METAR i TAF).

Les estacions disponibles són els punts grocs i vermells al mapa.

Posi el ratolí al punt desitjat per veure el nom de l'estació.

Feu clic per veure les observacions i els pronòstics meteorològics.

Per canviar el mapa: feu clic els botons verds amb una creu de color negre per apropar; al botó verd amb un guió per allunyar la imatge; o en les fletxes verdes per a mapes adjacents.


METAR-TAF: